sensor_id;sensor_type;location;lat;lon;timestamp;P1;durP1;ratioP1;P2;durP2;ratioP2
20734;SDS011;10528;52.124;5.196;2023-01-04T00:01:15;6.28;;;2.10;;
20734;SDS011;10528;52.124;5.196;2023-01-04T00:03:48;6.03;;;1.73;;
20734;SDS011;10528;52.124;5.196;2023-01-04T00:06:16;6.20;;;2.20;;
20734;SDS011;10528;52.124;5.196;2023-01-04T00:08:43;7.25;;;2.03;;
20734;SDS011;10528;52.124;5.196;2023-01-04T00:11:11;6.07;;;2.17;;
20734;SDS011;10528;52.124;5.196;2023-01-04T00:13:45;5.85;;;1.70;;
20734;SDS011;10528;52.124;5.196;2023-01-04T00:16:16;5.45;;;2.38;;
20734;SDS011;10528;52.124;5.196;2023-01-04T00:18:49;6.05;;;1.98;;
20734;SDS011;10528;52.124;5.196;2023-01-04T00:21:19;6.80;;;1.98;;
20734;SDS011;10528;52.124;5.196;2023-01-04T00:23:49;5.45;;;1.90;;
20734;SDS011;10528;52.124;5.196;2023-01-04T00:26:20;6.57;;;2.08;;
20734;SDS011;10528;52.124;5.196;2023-01-04T00:28:53;3.58;;;1.83;;
20734;SDS011;10528;52.124;5.196;2023-01-04T00:31:26;6.38;;;2.15;;
20734;SDS011;10528;52.124;5.196;2023-01-04T00:33:54;5.78;;;2.00;;
20734;SDS011;10528;52.124;5.196;2023-01-04T00:36:23;5.00;;;1.95;;
20734;SDS011;10528;52.124;5.196;2023-01-04T00:38:52;4.35;;;1.80;;
20734;SDS011;10528;52.124;5.196;2023-01-04T00:41:36;4.18;;;2.20;;
20734;SDS011;10528;52.124;5.196;2023-01-04T00:44:25;3.90;;;1.70;;
20734;SDS011;10528;52.124;5.196;2023-01-04T00:46:53;3.22;;;1.58;;
20734;SDS011;10528;52.124;5.196;2023-01-04T00:49:21;3.35;;;1.73;;
20734;SDS011;10528;52.124;5.196;2023-01-04T00:51:48;3.88;;;1.50;;
20734;SDS011;10528;52.124;5.196;2023-01-04T00:54:15;3.53;;;1.60;;
20734;SDS011;10528;52.124;5.196;2023-01-04T00:56:42;5.25;;;1.98;;
20734;SDS011;10528;52.124;5.196;2023-01-04T00:59:11;3.88;;;1.63;;
20734;SDS011;10528;52.124;5.196;2023-01-04T01:01:42;4.45;;;1.45;;
20734;SDS011;10528;52.124;5.196;2023-01-04T01:04:11;2.92;;;1.50;;
20734;SDS011;10528;52.124;5.196;2023-01-04T01:06:41;4.25;;;1.50;;
20734;SDS011;10528;52.124;5.196;2023-01-04T01:09:08;3.35;;;1.42;;
20734;SDS011;10528;52.124;5.196;2023-01-04T01:11:36;2.85;;;1.35;;
20734;SDS011;10528;52.124;5.196;2023-01-04T01:14:05;3.95;;;1.58;;
20734;SDS011;10528;52.124;5.196;2023-01-04T01:16:33;3.10;;;1.20;;
20734;SDS011;10528;52.124;5.196;2023-01-04T01:19:20;3.05;;;1.30;;
20734;SDS011;10528;52.124;5.196;2023-01-04T01:21:47;4.97;;;1.38;;
20734;SDS011;10528;52.124;5.196;2023-01-04T01:24:15;2.50;;;1.42;;
20734;SDS011;10528;52.124;5.196;2023-01-04T01:26:45;1.70;;;1.13;;
20734;SDS011;10528;52.124;5.196;2023-01-04T01:29:12;2.20;;;1.50;;
20734;SDS011;10528;52.124;5.196;2023-01-04T01:31:39;2.95;;;1.42;;
20734;SDS011;10528;52.124;5.196;2023-01-04T01:34:07;3.03;;;1.23;;
20734;SDS011;10528;52.124;5.196;2023-01-04T01:36:34;3.47;;;1.60;;
20734;SDS011;10528;52.124;5.196;2023-01-04T01:39:02;3.17;;;1.80;;
20734;SDS011;10528;52.124;5.196;2023-01-04T01:41:31;3.22;;;1.50;;
20734;SDS011;10528;52.124;5.196;2023-01-04T01:47:14;3.30;;;1.65;;
20734;SDS011;10528;52.124;5.196;2023-01-04T01:49:47;2.70;;;1.50;;
20734;SDS011;10528;52.124;5.196;2023-01-04T01:52:29;2.38;;;1.70;;
20734;SDS011;10528;52.124;5.196;2023-01-04T01:55:03;2.63;;;1.45;;
20734;SDS011;10528;52.124;5.196;2023-01-04T01:57:35;3.28;;;1.73;;
20734;SDS011;10528;52.124;5.196;2023-01-04T02:00:13;3.60;;;1.80;;
20734;SDS011;10528;52.124;5.196;2023-01-04T02:02:56;3.05;;;1.70;;
20734;SDS011;10528;52.124;5.196;2023-01-04T02:05:38;2.65;;;1.90;;
20734;SDS011;10528;52.124;5.196;2023-01-04T02:08:05;4.45;;;1.90;;
20734;SDS011;10528;52.124;5.196;2023-01-04T02:10:34;3.72;;;2.30;;
20734;SDS011;10528;52.124;5.196;2023-01-04T02:13:02;4.20;;;2.10;;
20734;SDS011;10528;52.124;5.196;2023-01-04T02:18:30;4.45;;;2.50;;
20734;SDS011;10528;52.124;5.196;2023-01-04T02:21:13;2.70;;;2.20;;
20734;SDS011;10528;52.124;5.196;2023-01-04T02:23:58;2.65;;;2.05;;
20734;SDS011;10528;52.124;5.196;2023-01-04T02:29:32;3.58;;;1.90;;
20734;SDS011;10528;52.124;5.196;2023-01-04T02:35:47;3.88;;;2.53;;
20734;SDS011;10528;52.124;5.196;2023-01-04T02:38:46;4.38;;;2.63;;
20734;SDS011;10528;52.124;5.196;2023-01-04T02:41:57;4.53;;;2.50;;
20734;SDS011;10528;52.124;5.196;2023-01-04T02:47:27;3.78;;;2.60;;
20734;SDS011;10528;52.124;5.196;2023-01-04T02:50:23;5.05;;;2.90;;
20734;SDS011;10528;52.124;5.196;2023-01-04T02:53:19;3.65;;;2.30;;
20734;SDS011;10528;52.124;5.196;2023-01-04T02:58:56;4.25;;;2.95;;
20734;SDS011;10528;52.124;5.196;2023-01-04T03:05:13;3.42;;;2.95;;
20734;SDS011;10528;52.124;5.196;2023-01-04T03:11:14;4.22;;;3.20;;
20734;SDS011;10528;52.124;5.196;2023-01-04T03:14:14;4.07;;;3.03;;
20734;SDS011;10528;52.124;5.196;2023-01-04T03:16:58;5.20;;;3.95;;
20734;SDS011;10528;52.124;5.196;2023-01-04T03:19:30;6.53;;;3.45;;
20734;SDS011;10528;52.124;5.196;2023-01-04T03:22:34;5.15;;;3.20;;
20734;SDS011;10528;52.124;5.196;2023-01-04T03:25:28;4.07;;;2.90;;
20734;SDS011;10528;52.124;5.196;2023-01-04T03:28:42;4.60;;;3.03;;
20734;SDS011;10528;52.124;5.196;2023-01-04T03:31:31;3.35;;;2.50;;
20734;SDS011;10528;52.124;5.196;2023-01-04T03:34:39;3.45;;;2.85;;
20734;SDS011;10528;52.124;5.196;2023-01-04T03:37:36;4.57;;;3.33;;
20734;SDS011;10528;52.124;5.196;2023-01-04T03:40:19;4.38;;;2.78;;
20734;SDS011;10528;52.124;5.196;2023-01-04T03:43:19;3.28;;;2.40;;
20734;SDS011;10528;52.124;5.196;2023-01-04T03:46:14;3.95;;;2.53;;
20734;SDS011;10528;52.124;5.196;2023-01-04T03:49:12;3.60;;;2.35;;
20734;SDS011;10528;52.124;5.196;2023-01-04T03:51:51;3.22;;;2.40;;
20734;SDS011;10528;52.124;5.196;2023-01-04T03:54:24;4.13;;;2.25;;
20734;SDS011;10528;52.124;5.196;2023-01-04T03:57:02;4.13;;;2.40;;
20734;SDS011;10528;52.124;5.196;2023-01-04T03:59:30;3.92;;;2.00;;
20734;SDS011;10528;52.124;5.196;2023-01-04T04:02:04;2.70;;;2.25;;
20734;SDS011;10528;52.124;5.196;2023-01-04T04:04:35;2.83;;;1.88;;
20734;SDS011;10528;52.124;5.196;2023-01-04T04:07:20;3.15;;;1.80;;
20734;SDS011;10528;52.124;5.196;2023-01-04T04:10:06;2.58;;;1.70;;
20734;SDS011;10528;52.124;5.196;2023-01-04T04:12:33;3.17;;;1.67;;
20734;SDS011;10528;52.124;5.196;2023-01-04T04:15:00;4.13;;;1.85;;
20734;SDS011;10528;52.124;5.196;2023-01-04T04:17:27;3.70;;;1.92;;
20734;SDS011;10528;52.124;5.196;2023-01-04T04:19:54;4.25;;;2.00;;
20734;SDS011;10528;52.124;5.196;2023-01-04T04:22:21;5.05;;;2.10;;
20734;SDS011;10528;52.124;5.196;2023-01-04T04:24:47;3.28;;;1.75;;
20734;SDS011;10528;52.124;5.196;2023-01-04T04:27:14;1.83;;;1.40;;
20734;SDS011;10528;52.124;5.196;2023-01-04T04:29:41;2.78;;;1.50;;
20734;SDS011;10528;52.124;5.196;2023-01-04T04:32:08;2.45;;;1.42;;
20734;SDS011;10528;52.124;5.196;2023-01-04T04:34:35;2.85;;;1.58;;
20734;SDS011;10528;52.124;5.196;2023-01-04T04:37:02;2.05;;;1.50;;
20734;SDS011;10528;52.124;5.196;2023-01-04T04:39:29;3.10;;;2.00;;
20734;SDS011;10528;52.124;5.196;2023-01-04T04:41:56;4.80;;;2.20;;
20734;SDS011;10528;52.124;5.196;2023-01-04T04:44:23;4.53;;;2.00;;
20734;SDS011;10528;52.124;5.196;2023-01-04T04:46:49;3.10;;;1.80;;
20734;SDS011;10528;52.124;5.196;2023-01-04T04:49:16;3.60;;;1.70;;
20734;SDS011;10528;52.124;5.196;2023-01-04T04:51:44;4.05;;;1.83;;
20734;SDS011;10528;52.124;5.196;2023-01-04T04:54:14;3.65;;;1.60;;
20734;SDS011;10528;52.124;5.196;2023-01-04T04:56:44;2.42;;;1.58;;
20734;SDS011;10528;52.124;5.196;2023-01-04T04:59:12;2.53;;;1.63;;
20734;SDS011;10528;52.124;5.196;2023-01-04T05:01:39;3.53;;;1.80;;
20734;SDS011;10528;52.124;5.196;2023-01-04T05:04:06;4.45;;;1.80;;
20734;SDS011;10528;52.124;5.196;2023-01-04T05:06:33;2.75;;;1.70;;
20734;SDS011;10528;52.124;5.196;2023-01-04T05:09:00;2.30;;;1.40;;
20734;SDS011;10528;52.124;5.196;2023-01-04T05:11:27;4.47;;;1.58;;
20734;SDS011;10528;52.124;5.196;2023-01-04T05:14:12;2.53;;;1.60;;
20734;SDS011;10528;52.124;5.196;2023-01-04T05:16:39;2.88;;;1.63;;
20734;SDS011;10528;52.124;5.196;2023-01-04T05:19:06;2.35;;;1.80;;
20734;SDS011;10528;52.124;5.196;2023-01-04T05:21:32;2.28;;;2.03;;
20734;SDS011;10528;52.124;5.196;2023-01-04T05:23:59;2.83;;;2.15;;
20734;SDS011;10528;52.124;5.196;2023-01-04T05:26:26;3.42;;;2.20;;
20734;SDS011;10528;52.124;5.196;2023-01-04T05:28:53;2.50;;;2.25;;
20734;SDS011;10528;52.124;5.196;2023-01-04T05:31:20;5.32;;;2.30;;
20734;SDS011;10528;52.124;5.196;2023-01-04T05:33:47;3.83;;;2.50;;
20734;SDS011;10528;52.124;5.196;2023-01-04T05:36:14;5.68;;;3.00;;
20734;SDS011;10528;52.124;5.196;2023-01-04T05:38:41;3.70;;;3.22;;
20734;SDS011;10528;52.124;5.196;2023-01-04T05:41:08;3.55;;;2.60;;
20734;SDS011;10528;52.124;5.196;2023-01-04T05:43:55;4.57;;;2.65;;
20734;SDS011;10528;52.124;5.196;2023-01-04T05:46:22;3.95;;;2.95;;
20734;SDS011;10528;52.124;5.196;2023-01-04T05:48:49;2.78;;;2.38;;
20734;SDS011;10528;52.124;5.196;2023-01-04T05:51:16;3.63;;;2.78;;
20734;SDS011;10528;52.124;5.196;2023-01-04T05:53:43;4.72;;;2.88;;
20734;SDS011;10528;52.124;5.196;2023-01-04T05:56:10;3.00;;;2.70;;
20734;SDS011;10528;52.124;5.196;2023-01-04T05:58:37;3.47;;;2.63;;
20734;SDS011;10528;52.124;5.196;2023-01-04T06:01:04;3.50;;;2.65;;
20734;SDS011;10528;52.124;5.196;2023-01-04T06:03:33;2.83;;;2.40;;
20734;SDS011;10528;52.124;5.196;2023-01-04T06:06:00;3.63;;;2.35;;
20734;SDS011;10528;52.124;5.196;2023-01-04T06:08:27;3.13;;;1.88;;
20734;SDS011;10528;52.124;5.196;2023-01-04T06:10:54;4.95;;;2.30;;
20734;SDS011;10528;52.124;5.196;2023-01-04T06:13:21;3.50;;;2.25;;
20734;SDS011;10528;52.124;5.196;2023-01-04T06:15:48;2.92;;;2.38;;
20734;SDS011;10528;52.124;5.196;2023-01-04T06:18:15;2.67;;;2.45;;
20734;SDS011;10528;52.124;5.196;2023-01-04T06:20:41;2.95;;;2.47;;
20734;SDS011;10528;52.124;5.196;2023-01-04T06:23:09;2.38;;;2.17;;
20734;SDS011;10528;52.124;5.196;2023-01-04T06:25:36;4.70;;;2.92;;
20734;SDS011;10528;52.124;5.196;2023-01-04T06:28:03;3.55;;;2.75;;
20734;SDS011;10528;52.124;5.196;2023-01-04T06:30:30;3.28;;;2.92;;
20734;SDS011;10528;52.124;5.196;2023-01-04T06:32:57;2.83;;;2.42;;
20734;SDS011;10528;52.124;5.196;2023-01-04T06:35:24;3.80;;;2.95;;
20734;SDS011;10528;52.124;5.196;2023-01-04T06:37:51;4.20;;;2.75;;
20734;SDS011;10528;52.124;5.196;2023-01-04T06:40:17;3.17;;;2.78;;
20734;SDS011;10528;52.124;5.196;2023-01-04T06:42:44;4.97;;;3.20;;
20734;SDS011;10528;52.124;5.196;2023-01-04T06:45:14;5.78;;;2.72;;
20734;SDS011;10528;52.124;5.196;2023-01-04T06:47:42;4.82;;;3.00;;
20734;SDS011;10528;52.124;5.196;2023-01-04T06:50:09;5.13;;;2.38;;
20734;SDS011;10528;52.124;5.196;2023-01-04T06:52:36;3.80;;;2.70;;
20734;SDS011;10528;52.124;5.196;2023-01-04T06:55:04;3.90;;;2.60;;
20734;SDS011;10528;52.124;5.196;2023-01-04T06:57:34;4.65;;;2.58;;
20734;SDS011;10528;52.124;5.196;2023-01-04T07:00:02;3.78;;;2.28;;
20734;SDS011;10528;52.124;5.196;2023-01-04T07:02:31;2.90;;;1.73;;
20734;SDS011;10528;52.124;5.196;2023-01-04T07:04:59;4.82;;;2.28;;
20734;SDS011;10528;52.124;5.196;2023-01-04T07:07:26;5.22;;;2.72;;
20734;SDS011;10528;52.124;5.196;2023-01-04T07:09:53;4.20;;;2.28;;
20734;SDS011;10528;52.124;5.196;2023-01-04T07:12:20;4.80;;;2.35;;
20734;SDS011;10528;52.124;5.196;2023-01-04T07:14:46;3.25;;;2.40;;
20734;SDS011;10528;52.124;5.196;2023-01-04T07:17:13;6.25;;;2.30;;
20734;SDS011;10528;52.124;5.196;2023-01-04T07:19:40;6.40;;;2.10;;
20734;SDS011;10528;52.124;5.196;2023-01-04T07:22:07;6.60;;;2.50;;
20734;SDS011;10528;52.124;5.196;2023-01-04T07:24:34;5.45;;;2.35;;
20734;SDS011;10528;52.124;5.196;2023-01-04T07:27:01;5.50;;;2.20;;
20734;SDS011;10528;52.124;5.196;2023-01-04T07:29:28;3.78;;;1.85;;
20734;SDS011;10528;52.124;5.196;2023-01-04T07:31:55;4.47;;;2.15;;
20734;SDS011;10528;52.124;5.196;2023-01-04T07:34:23;7.35;;;2.30;;
20734;SDS011;10528;52.124;5.196;2023-01-04T07:36:51;8.77;;;2.05;;
20734;SDS011;10528;52.124;5.196;2023-01-04T07:39:18;5.13;;;2.30;;
20734;SDS011;10528;52.124;5.196;2023-01-04T07:41:46;4.70;;;2.22;;
20734;SDS011;10528;52.124;5.196;2023-01-04T07:44:17;4.07;;;2.20;;
20734;SDS011;10528;52.124;5.196;2023-01-04T07:46:46;6.00;;;2.00;;
20734;SDS011;10528;52.124;5.196;2023-01-04T07:49:14;7.63;;;2.22;;
20734;SDS011;10528;52.124;5.196;2023-01-04T07:51:44;3.53;;;1.48;;
20734;SDS011;10528;52.124;5.196;2023-01-04T07:54:13;5.20;;;2.40;;
20734;SDS011;10528;52.124;5.196;2023-01-04T07:56:42;4.80;;;1.85;;
20734;SDS011;10528;52.124;5.196;2023-01-04T07:59:11;4.30;;;1.88;;
20734;SDS011;10528;52.124;5.196;2023-01-04T08:01:39;3.50;;;1.73;;
20734;SDS011;10528;52.124;5.196;2023-01-04T08:04:07;4.15;;;1.80;;
20734;SDS011;10528;52.124;5.196;2023-01-04T08:06:36;3.22;;;1.45;;
20734;SDS011;10528;52.124;5.196;2023-01-04T08:09:04;3.17;;;1.52;;
20734;SDS011;10528;52.124;5.196;2023-01-04T08:11:32;4.65;;;1.40;;
20734;SDS011;10528;52.124;5.196;2023-01-04T08:13:59;3.65;;;1.55;;
20734;SDS011;10528;52.124;5.196;2023-01-04T08:16:33;1.80;;;1.10;;
20734;SDS011;10528;52.124;5.196;2023-01-04T08:19:04;2.67;;;1.40;;
20734;SDS011;10528;52.124;5.196;2023-01-04T08:21:39;2.53;;;1.30;;
20734;SDS011;10528;52.124;5.196;2023-01-04T08:24:11;4.03;;;1.40;;
20734;SDS011;10528;52.124;5.196;2023-01-04T08:26:41;2.72;;;1.35;;
20734;SDS011;10528;52.124;5.196;2023-01-04T08:29:09;2.75;;;1.30;;
20734;SDS011;10528;52.124;5.196;2023-01-04T08:31:37;1.40;;;1.00;;
20734;SDS011;10528;52.124;5.196;2023-01-04T08:34:06;2.65;;;1.50;;
20734;SDS011;10528;52.124;5.196;2023-01-04T08:36:42;1.60;;;1.00;;
20734;SDS011;10528;52.124;5.196;2023-01-04T08:39:15;2.00;;;0.90;;
20734;SDS011;10528;52.124;5.196;2023-01-04T08:41:42;2.03;;;0.93;;
20734;SDS011;10528;52.124;5.196;2023-01-04T08:44:30;2.63;;;1.10;;
20734;SDS011;10528;52.124;5.196;2023-01-04T08:46:59;1.80;;;1.00;;
20734;SDS011;10528;52.124;5.196;2023-01-04T08:49:26;1.00;;;0.80;;
20734;SDS011;10528;52.124;5.196;2023-01-04T08:51:53;1.02;;;0.73;;
20734;SDS011;10528;52.124;5.196;2023-01-04T08:54:20;1.67;;;1.00;;
20734;SDS011;10528;52.124;5.196;2023-01-04T08:56:48;1.83;;;0.82;;
20734;SDS011;10528;52.124;5.196;2023-01-04T08:59:15;1.45;;;0.93;;
20734;SDS011;10528;52.124;5.196;2023-01-04T09:01:41;1.08;;;0.82;;
20734;SDS011;10528;52.124;5.196;2023-01-04T09:04:09;1.90;;;0.90;;
20734;SDS011;10528;52.124;5.196;2023-01-04T09:06:36;2.42;;;1.00;;
20734;SDS011;10528;52.124;5.196;2023-01-04T09:09:04;1.65;;;1.02;;
20734;SDS011;10528;52.124;5.196;2023-01-04T09:11:31;1.17;;;1.00;;
20734;SDS011;10528;52.124;5.196;2023-01-04T09:13:59;1.55;;;1.00;;
20734;SDS011;10528;52.124;5.196;2023-01-04T09:16:37;3.42;;;1.00;;
20734;SDS011;10528;52.124;5.196;2023-01-04T09:19:05;0.98;;;0.88;;
20734;SDS011;10528;52.124;5.196;2023-01-04T09:21:33;1.08;;;0.70;;
20734;SDS011;10528;52.124;5.196;2023-01-04T09:24:00;1.65;;;0.77;;
20734;SDS011;10528;52.124;5.196;2023-01-04T09:26:27;1.10;;;0.75;;
20734;SDS011;10528;52.124;5.196;2023-01-04T09:28:54;1.27;;;0.73;;
20734;SDS011;10528;52.124;5.196;2023-01-04T09:31:23;1.73;;;0.73;;
20734;SDS011;10528;52.124;5.196;2023-01-04T09:33:53;1.45;;;0.60;;
20734;SDS011;10528;52.124;5.196;2023-01-04T09:36:40;1.55;;;0.80;;
20734;SDS011;10528;52.124;5.196;2023-01-04T09:39:08;1.30;;;0.77;;
20734;SDS011;10528;52.124;5.196;2023-01-04T09:41:56;2.97;;;1.00;;
20734;SDS011;10528;52.124;5.196;2023-01-04T09:44:37;2.35;;;0.80;;
20734;SDS011;10528;52.124;5.196;2023-01-04T09:52:51;3.38;;;0.70;;
20734;SDS011;10528;52.124;5.196;2023-01-04T09:55:31;2.38;;;1.17;;
20734;SDS011;10528;52.124;5.196;2023-01-04T10:06:47;3.10;;;0.90;;
20734;SDS011;10528;52.124;5.196;2023-01-04T10:09:15;1.70;;;0.90;;
20734;SDS011;10528;52.124;5.196;2023-01-04T10:17:41;2.53;;;0.82;;
20734;SDS011;10528;52.124;5.196;2023-01-04T10:26:49;3.58;;;0.88;;
20734;SDS011;10528;52.124;5.196;2023-01-04T10:32:38;3.00;;;1.00;;
20734;SDS011;10528;52.124;5.196;2023-01-04T10:37:49;3.47;;;1.02;;
20734;SDS011;10528;52.124;5.196;2023-01-04T10:40:22;6.47;;;1.40;;
20734;SDS011;10528;52.124;5.196;2023-01-04T10:43:15;3.97;;;1.10;;
20734;SDS011;10528;52.124;5.196;2023-01-04T10:46:24;6.78;;;1.83;;
20734;SDS011;10528;52.124;5.196;2023-01-04T10:49:06;5.10;;;1.17;;
20734;SDS011;10528;52.124;5.196;2023-01-04T10:51:54;3.85;;;1.25;;
20734;SDS011;10528;52.124;5.196;2023-01-04T10:54:41;4.47;;;1.30;;
20734;SDS011;10528;52.124;5.196;2023-01-04T10:57:29;4.13;;;1.30;;
20734;SDS011;10528;52.124;5.196;2023-01-04T11:00:23;5.57;;;1.55;;
20734;SDS011;10528;52.124;5.196;2023-01-04T11:03:12;5.72;;;1.38;;
20734;SDS011;10528;52.124;5.196;2023-01-04T11:05:53;4.60;;;1.27;;
20734;SDS011;10528;52.124;5.196;2023-01-04T11:08:52;5.38;;;1.25;;
20734;SDS011;10528;52.124;5.196;2023-01-04T11:11:24;4.80;;;1.30;;
20734;SDS011;10528;52.124;5.196;2023-01-04T11:14:01;5.90;;;1.40;;
20734;SDS011;10528;52.124;5.196;2023-01-04T11:16:29;4.18;;;1.30;;
20734;SDS011;10528;52.124;5.196;2023-01-04T11:18:57;4.63;;;1.50;;
20734;SDS011;10528;52.124;5.196;2023-01-04T11:21:25;6.60;;;2.00;;
20734;SDS011;10528;52.124;5.196;2023-01-04T11:23:58;4.15;;;1.50;;
20734;SDS011;10528;52.124;5.196;2023-01-04T11:26:51;6.75;;;1.77;;
20734;SDS011;10528;52.124;5.196;2023-01-04T11:32:23;2.92;;;1.25;;
20734;SDS011;10528;52.124;5.196;2023-01-04T11:35:14;4.75;;;1.73;;
20734;SDS011;10528;52.124;5.196;2023-01-04T11:37:41;3.97;;;1.40;;
20734;SDS011;10528;52.124;5.196;2023-01-04T11:40:10;5.05;;;1.52;;
20734;SDS011;10528;52.124;5.196;2023-01-04T11:42:44;5.55;;;1.65;;
20734;SDS011;10528;52.124;5.196;2023-01-04T11:47:54;3.15;;;1.27;;
20734;SDS011;10528;52.124;5.196;2023-01-04T11:50:57;5.60;;;1.35;;
20734;SDS011;10528;52.124;5.196;2023-01-04T11:53:21;7.75;;;1.63;;
20734;SDS011;10528;52.124;5.196;2023-01-04T11:55:49;3.25;;;1.13;;
20734;SDS011;10528;52.124;5.196;2023-01-04T11:58:17;4.53;;;1.20;;
20734;SDS011;10528;52.124;5.196;2023-01-04T12:00:49;4.85;;;1.15;;
20734;SDS011;10528;52.124;5.196;2023-01-04T12:03:23;6.25;;;1.40;;
20734;SDS011;10528;52.124;5.196;2023-01-04T12:05:51;6.72;;;1.40;;
20734;SDS011;10528;52.124;5.196;2023-01-04T12:08:34;4.72;;;1.13;;
20734;SDS011;10528;52.124;5.196;2023-01-04T12:11:03;4.47;;;1.05;;
20734;SDS011;10528;52.124;5.196;2023-01-04T12:13:31;6.72;;;1.38;;
20734;SDS011;10528;52.124;5.196;2023-01-04T12:16:04;10.00;;;1.20;;
20734;SDS011;10528;52.124;5.196;2023-01-04T12:18:40;7.03;;;1.42;;
20734;SDS011;10528;52.124;5.196;2023-01-04T12:21:16;8.38;;;1.70;;
20734;SDS011;10528;52.124;5.196;2023-01-04T12:23:50;6.00;;;1.23;;
20734;SDS011;10528;52.124;5.196;2023-01-04T12:26:20;8.90;;;1.60;;
20734;SDS011;10528;52.124;5.196;2023-01-04T12:28:50;5.10;;;1.15;;
20734;SDS011;10528;52.124;5.196;2023-01-04T12:31:44;4.63;;;1.20;;
20734;SDS011;10528;52.124;5.196;2023-01-04T12:50:00;7.88;;;1.95;;
20734;SDS011;10528;52.124;5.196;2023-01-04T12:52:44;7.32;;;1.65;;
20734;SDS011;10528;52.124;5.196;2023-01-04T13:01:20;8.52;;;1.77;;
20734;SDS011;10528;52.124;5.196;2023-01-04T13:03:53;7.05;;;1.75;;
20734;SDS011;10528;52.124;5.196;2023-01-04T13:06:32;8.75;;;1.40;;
20734;SDS011;10528;52.124;5.196;2023-01-04T13:09:15;9.90;;;1.35;;
20734;SDS011;10528;52.124;5.196;2023-01-04T13:11:54;6.13;;;1.35;;
20734;SDS011;10528;52.124;5.196;2023-01-04T13:14:45;6.35;;;1.48;;
20734;SDS011;10528;52.124;5.196;2023-01-04T13:17:17;6.30;;;1.48;;
20734;SDS011;10528;52.124;5.196;2023-01-04T13:19:49;8.20;;;1.77;;
20734;SDS011;10528;52.124;5.196;2023-01-04T13:22:17;6.35;;;1.30;;
20734;SDS011;10528;52.124;5.196;2023-01-04T13:24:56;7.95;;;1.98;;
20734;SDS011;10528;52.124;5.196;2023-01-04T13:27:26;7.78;;;1.70;;
20734;SDS011;10528;52.124;5.196;2023-01-04T13:29:53;6.70;;;1.90;;
20734;SDS011;10528;52.124;5.196;2023-01-04T13:32:27;8.95;;;1.50;;
20734;SDS011;10528;52.124;5.196;2023-01-04T13:37:44;10.35;;;1.92;;
20734;SDS011;10528;52.124;5.196;2023-01-04T13:48:41;14.15;;;2.20;;
20734;SDS011;10528;52.124;5.196;2023-01-04T13:51:20;10.02;;;1.50;;
20734;SDS011;10528;52.124;5.196;2023-01-04T13:54:03;11.85;;;1.73;;
20734;SDS011;10528;52.124;5.196;2023-01-04T13:56:46;8.25;;;1.50;;
20734;SDS011;10528;52.124;5.196;2023-01-04T13:59:20;7.63;;;2.00;;
20734;SDS011;10528;52.124;5.196;2023-01-04T14:01:48;10.27;;;1.60;;
20734;SDS011;10528;52.124;5.196;2023-01-04T14:04:23;9.85;;;2.08;;
20734;SDS011;10528;52.124;5.196;2023-01-04T14:06:54;9.77;;;2.08;;
20734;SDS011;10528;52.124;5.196;2023-01-04T14:09:24;8.57;;;1.85;;
20734;SDS011;10528;52.124;5.196;2023-01-04T14:11:59;9.48;;;1.75;;
20734;SDS011;10528;52.124;5.196;2023-01-04T14:17:31;12.60;;;1.75;;
20734;SDS011;10528;52.124;5.196;2023-01-04T14:28:23;7.72;;;1.95;;
20734;SDS011;10528;52.124;5.196;2023-01-04T14:41:10;9.32;;;2.25;;
20734;SDS011;10528;52.124;5.196;2023-01-04T14:43:47;8.65;;;2.05;;
20734;SDS011;10528;52.124;5.196;2023-01-04T14:46:29;9.38;;;1.98;;
20734;SDS011;10528;52.124;5.196;2023-01-04T14:48:57;9.07;;;2.20;;
20734;SDS011;10528;52.124;5.196;2023-01-04T14:51:31;10.85;;;2.17;;
20734;SDS011;10528;52.124;5.196;2023-01-04T14:54:20;11.80;;;2.25;;
20734;SDS011;10528;52.124;5.196;2023-01-04T14:56:51;7.13;;;1.70;;
20734;SDS011;10528;52.124;5.196;2023-01-04T14:59:20;11.55;;;2.28;;
20734;SDS011;10528;52.124;5.196;2023-01-04T15:01:51;14.13;;;2.05;;
20734;SDS011;10528;52.124;5.196;2023-01-04T15:04:19;12.30;;;2.10;;
20734;SDS011;10528;52.124;5.196;2023-01-04T15:06:57;8.55;;;1.90;;
20734;SDS011;10528;52.124;5.196;2023-01-04T15:09:25;10.02;;;1.92;;
20734;SDS011;10528;52.124;5.196;2023-01-04T15:11:54;13.68;;;1.98;;
20734;SDS011;10528;52.124;5.196;2023-01-04T15:14:21;13.55;;;2.47;;
20734;SDS011;10528;52.124;5.196;2023-01-04T15:16:48;16.80;;;2.47;;
20734;SDS011;10528;52.124;5.196;2023-01-04T15:19:15;11.05;;;2.25;;
20734;SDS011;10528;52.124;5.196;2023-01-04T15:21:42;11.95;;;2.75;;
20734;SDS011;10528;52.124;5.196;2023-01-04T15:24:09;13.70;;;2.28;;
20734;SDS011;10528;52.124;5.196;2023-01-04T15:26:37;9.57;;;1.98;;
20734;SDS011;10528;52.124;5.196;2023-01-04T15:29:05;14.38;;;2.30;;
20734;SDS011;10528;52.124;5.196;2023-01-04T15:31:33;9.98;;;2.35;;
20734;SDS011;10528;52.124;5.196;2023-01-04T15:34:05;13.90;;;2.55;;
20734;SDS011;10528;52.124;5.196;2023-01-04T15:36:35;15.15;;;2.75;;
20734;SDS011;10528;52.124;5.196;2023-01-04T15:39:04;18.55;;;3.03;;
20734;SDS011;10528;52.124;5.196;2023-01-04T15:41:32;12.88;;;2.60;;
20734;SDS011;10528;52.124;5.196;2023-01-04T15:44:18;11.70;;;3.30;;
20734;SDS011;10528;52.124;5.196;2023-01-04T15:46:45;14.65;;;3.10;;
20734;SDS011;10528;52.124;5.196;2023-01-04T15:49:12;16.75;;;2.90;;
20734;SDS011;10528;52.124;5.196;2023-01-04T15:51:43;16.35;;;3.28;;
20734;SDS011;10528;52.124;5.196;2023-01-04T15:54:11;15.43;;;3.08;;
20734;SDS011;10528;52.124;5.196;2023-01-04T15:56:38;20.48;;;3.38;;
20734;SDS011;10528;52.124;5.196;2023-01-04T15:59:05;16.52;;;3.35;;
20734;SDS011;10528;52.124;5.196;2023-01-04T16:01:32;16.08;;;4.00;;
20734;SDS011;10528;52.124;5.196;2023-01-04T16:03:59;17.38;;;3.50;;
20734;SDS011;10528;52.124;5.196;2023-01-04T16:06:27;20.63;;;3.58;;
20734;SDS011;10528;52.124;5.196;2023-01-04T16:08:54;18.00;;;4.05;;
20734;SDS011;10528;52.124;5.196;2023-01-04T16:11:24;20.38;;;3.97;;
20734;SDS011;10528;52.124;5.196;2023-01-04T16:13:51;20.15;;;4.22;;
20734;SDS011;10528;52.124;5.196;2023-01-04T16:16:19;21.77;;;3.58;;
20734;SDS011;10528;52.124;5.196;2023-01-04T16:18:49;22.13;;;3.50;;
20734;SDS011;10528;52.124;5.196;2023-01-04T16:21:25;18.48;;;3.95;;
20734;SDS011;10528;52.124;5.196;2023-01-04T16:23:57;19.45;;;3.67;;
20734;SDS011;10528;52.124;5.196;2023-01-04T16:26:38;21.40;;;3.90;;
20734;SDS011;10528;52.124;5.196;2023-01-04T16:29:05;15.52;;;3.40;;
20734;SDS011;10528;52.124;5.196;2023-01-04T16:31:32;17.52;;;3.47;;
20734;SDS011;10528;52.124;5.196;2023-01-04T16:34:00;19.08;;;3.70;;
20734;SDS011;10528;52.124;5.196;2023-01-04T16:36:28;20.45;;;3.40;;
20734;SDS011;10528;52.124;5.196;2023-01-04T16:38:55;18.35;;;3.53;;
20734;SDS011;10528;52.124;5.196;2023-01-04T16:41:23;16.65;;;3.58;;
20734;SDS011;10528;52.124;5.196;2023-01-04T16:43:51;18.48;;;3.80;;
20734;SDS011;10528;52.124;5.196;2023-01-04T16:46:28;19.35;;;3.25;;
20734;SDS011;10528;52.124;5.196;2023-01-04T16:49:02;13.50;;;3.15;;
20734;SDS011;10528;52.124;5.196;2023-01-04T16:51:38;20.00;;;4.45;;
20734;SDS011;10528;52.124;5.196;2023-01-04T16:54:09;17.20;;;3.38;;
20734;SDS011;10528;52.124;5.196;2023-01-04T16:56:37;23.27;;;3.97;;
20734;SDS011;10528;52.124;5.196;2023-01-04T16:59:05;19.27;;;3.67;;
20734;SDS011;10528;52.124;5.196;2023-01-04T17:01:34;21.08;;;4.22;;
20734;SDS011;10528;52.124;5.196;2023-01-04T17:04:13;20.08;;;3.38;;
20734;SDS011;10528;52.124;5.196;2023-01-04T17:06:41;17.13;;;3.15;;
20734;SDS011;10528;52.124;5.196;2023-01-04T17:09:14;22.92;;;3.53;;
20734;SDS011;10528;52.124;5.196;2023-01-04T17:11:45;21.27;;;4.05;;
20734;SDS011;10528;52.124;5.196;2023-01-04T17:14:41;20.08;;;4.72;;
20734;SDS011;10528;52.124;5.196;2023-01-04T17:17:08;28.23;;;4.25;;